気象予報士の航空気象 夕方の強風

*All archives   *Admin

スポンサーサイト

上記の広告は1ヶ月以上更新のないブログに表示されています。
新しい記事を書く事で広告が消せます。
--:--  |  スポンサー広告  |  EDIT  |  Top↑

2010.05.18 (Tue)

夕方の強風

アイスランドの火山灰の動向が気になります。


VA18MAY2010.jpg



欧州火山灰動向予報 ← クリック



火山灰が飛行機の運航に影響する理由に興味のある方は、下記をクリック。


過去の火山に関するブログ
浅間山噴火 火山灰と飛行機
浅間山噴火 火山灰と飛行機 その2


ブリティッシュ・エアウェイズ9便エンジン故障事故 ウィキペディアより
ブリティッシュ・エアウェイズ9便エンジン故障事故




高気圧の縁を通って、南風が強く、半そでで行動しているとちょっと寒かったです。


昼から強風が吹き始め、夕方まで15メートル近くの風が吹いていました。


RJTT 180400Z 19022G32KT 9999 FEW030 BKN/// 24/12 Q1016 RMK 1CU030 A3002


RJTT 180900Z 19022G33KT 9999 FEW030 SCT180 BKN/// 22/12 Q1014 RMK 1CU030 4AC180 A2995


明日は夕方から雨のようです。


傘は必須です。




 
ブログランキングに参加しています。
にほんブログ村 環境ブログ 天気・気象学へ
にほんブログ村
応援クリックをおねがします。


以下、アフィリエイトサイトです。



スポンサーサイト
22:48  |  気象・天気  |  TB(0)  |  CM(0)  |  EDIT  |  Top↑

コメントを投稿する


 管理者だけに表示  (非公開コメント投稿可能)

▲PageTop

この記事のトラックバックURL

→http://weathereucalyptus.blog115.fc2.com/tb.php/490-b3a47338
この記事にトラックバックする(FC2ブログユーザー)

この記事へのトラックバック

▲PageTop

 | BLOGTOP | 
上記広告は1ヶ月以上更新のないブログに表示されています。新しい記事を書くことで広告を消せます。